Time;durP1;ratioP1;P1;durP2;ratioP2;P2;SDS_P1;SDS_P2;PMS_P1;PMS_P2;Temp;Humidity;BMP_temperature;BMP_pressure;BME280_temperature;BME280_humidity;BME280_pressure;Samples;Min_cycle;Max_cycle;Signal;HPM_P1;HPM_P2
2023/12/24 00:01:27;;;;;;;5.80;3.50;;;;;;;-0.16;79.31;97386.91;107598;1258;69536;-84
2023/12/24 00:03:55;;;;;;;7.60;3.60;;;;;;;-0.14;79.56;97386.71;106578;1258;71425;-83
2023/12/24 00:06:23;;;;;;;6.20;4.00;;;;;;;-0.19;79.65;97384.95;106119;1254;60613;-82
2023/12/24 00:08:50;;;;;;;8.40;3.70;;;;;;;-0.25;79.76;97390.07;106139;1254;60543;-81
2023/12/24 00:11:18;;;;;;;5.50;3.30;;;;;;;-0.28;79.89;97393.84;105944;1256;73804;-80
2023/12/24 00:13:46;;;;;;;5.80;3.00;;;;;;;-0.19;79.59;97398.20;105928;1253;70244;-78
2023/12/24 00:16:14;;;;;;;8.60;3.90;;;;;;;-0.19;79.44;97402.55;106681;1254;72688;-80
2023/12/24 00:18:42;;;;;;;5.80;3.40;;;;;;;-0.25;79.57;97401.54;106494;1259;60386;-80
2023/12/24 00:21:13;;;;;;;6.70;3.80;;;;;;;-0.28;79.81;97410.05;107091;1259;60435;-80
2023/12/24 00:23:42;;;;;;;6.40;3.20;;;;;;;-0.30;79.92;97406.31;106739;1261;73861;-80
2023/12/24 00:26:09;;;;;;;5.70;3.30;;;;;;;-0.22;79.92;97409.94;106242;1256;69193;-79
2023/12/24 00:28:37;;;;;;;5.60;3.30;;;;;;;-0.11;79.69;97411.36;106197;1259;71464;-82
2023/12/24 00:31:05;;;;;;;12.50;3.70;;;;;;;-0.12;79.62;97413.17;106037;1256;60476;-79
2023/12/24 00:33:35;;;;;;;6.60;3.90;;;;;;;-0.18;79.43;97412.86;107241;1253;59391;-79
2023/12/24 00:36:03;;;;;;;6.70;3.90;;;;;;;-0.23;79.39;97411.56;107014;1253;72695;-78
2023/12/24 00:38:30;;;;;;;8.60;3.80;;;;;;;-0.26;79.47;97417.71;105746;1259;69175;-78
2023/12/24 00:41:00;;;;;;;7.50;3.60;;;;;;;-0.18;79.59;97422.23;105723;1254;72603;-80
2023/12/24 00:43:27;;;;;;;7.70;4.00;;;;;;;-0.12;79.40;97427.63;105815;1254;61561;-78
2023/12/24 00:45:55;;;;;;;6.30;3.00;;;;;;;-0.17;79.10;97425.16;106083;1254;60484;-83
2023/12/24 00:48:22;;;;;;;7.20;3.60;;;;;;;-0.25;79.20;97422.45;107872;1253;72898;-82
2023/12/24 00:50:50;;;;;;;5.30;3.30;;;;;;;-0.29;79.36;97423.71;109205;1253;68904;-81
2023/12/24 00:53:17;;;;;;;6.90;4.00;;;;;;;-0.21;79.21;97424.63;107524;1258;73307;-81
2023/12/24 00:55:45;;;;;;;4.80;3.20;;;;;;;-0.14;78.81;97424.67;106875;1258;60531;-83
2023/12/24 00:58:14;;;;;;;4.90;2.90;;;;;;;-0.18;79.07;97425.42;106671;1253;60361;-82
2023/12/24 01:00:42;;;;;;;6.30;3.50;;;;;;;-0.23;79.32;97428.17;106167;1253;73128;-82
2023/12/24 01:03:10;;;;;;;7.60;4.40;;;;;;;-0.27;79.32;97434.68;105742;1260;70522;-81
2023/12/24 01:05:38;;;;;;;5.40;2.70;;;;;;;-0.29;79.27;97433.33;106007;1253;71351;-80
2023/12/24 01:08:05;;;;;;;5.80;3.00;;;;;;;-0.19;79.17;97436.34;105974;1253;60442;-79
2023/12/24 01:10:33;;;;;;;5.50;3.20;;;;;;;-0.11;78.86;97439.30;106101;1259;60449;-80
2023/12/24 01:13:00;;;;;;;5.90;3.30;;;;;;;-0.15;78.53;97438.88;105783;1257;72584;-79
2023/12/24 01:15:28;;;;;;;5.80;3.20;;;;;;;-0.21;78.66;97438.23;105952;1254;70172;-80
2023/12/24 01:17:56;;;;;;;6.50;3.70;;;;;;;-0.26;78.69;97447.92;105951;1254;72905;-80
2023/12/24 01:20:24;;;;;;;6.70;3.60;;;;;;;-0.27;78.73;97445.31;105701;1253;60859;-79
2023/12/24 01:22:51;;;;;;;7.40;3.80;;;;;;;-0.17;78.82;97446.69;106943;1253;60540;-78
2023/12/24 01:25:20;;;;;;;5.40;3.50;;;;;;;-0.15;78.72;97448.63;107232;1253;74959;-75
2023/12/24 01:27:47;;;;;;;7.30;4.00;;;;;;;-0.22;78.65;97447.52;107026;1253;68186;-80
2023/12/24 01:30:16;;;;;;;5.10;2.90;;;;;;;-0.26;78.83;97453.30;107420;1257;71606;-80
2023/12/24 01:32:43;;;;;;;6.50;3.10;;;;;;;-0.27;78.89;97457.64;107327;1254;60565;-80
2023/12/24 01:35:11;;;;;;;5.30;3.50;;;;;;;-0.16;78.59;97454.14;105841;1254;60491;-80
2023/12/24 01:37:39;;;;;;;7.00;2.80;;;;;;;-0.14;78.82;97458.19;106038;1257;73952;-85
2023/12/24 01:40:08;;;;;;;4.50;2.80;;;;;;;-0.18;78.88;97462.77;106426;1253;70306;-81
2023/12/24 01:42:35;;;;;;;6.10;3.40;;;;;;;-0.22;78.94;97460.95;109029;1254;71423;-81
2023/12/24 01:45:03;;;;;;;4.90;3.10;;;;;;;-0.24;78.85;97459.55;108486;1253;59724;-80
2023/12/24 01:47:30;;;;;;;5.80;3.00;;;;;;;-0.12;78.73;97458.39;106575;1253;60953;-82
2023/12/24 01:49:58;;;;;;;5.70;3.20;;;;;;;-0.09;78.89;97464.67;106507;1253;71595;-82
2023/12/24 01:52:26;;;;;;;4.90;3.40;;;;;;;-0.11;78.87;97467.21;105757;1260;68779;-80
2023/12/24 01:54:54;;;;;;;4.80;3.40;;;;;;;-0.17;78.40;97475.11;105847;1253;72679;-79
2023/12/24 01:57:22;;;;;;;5.90;3.20;;;;;;;-0.24;78.59;97477.84;105798;1254;60510;-79
2023/12/24 01:59:50;;;;;;;4.70;2.70;;;;;;;-0.18;78.61;97481.83;106084;1253;60319;-79
2023/12/24 02:02:17;;;;;;;7.80;3.30;;;;;;;-0.13;78.51;97483.90;107302;1253;73028;-81
2023/12/24 02:04:45;;;;;;;6.10;3.10;;;;;;;-0.15;78.39;97482.73;108584;1254;71799;-81
2023/12/24 02:07:13;;;;;;;5.90;3.40;;;;;;;-0.19;78.60;97489.69;109343;1254;71427;-79
2023/12/24 02:09:43;;;;;;;13.70;7.50;;;;;;;-0.22;78.56;97489.33;108913;1253;60445;-80
2023/12/24 02:12:10;;;;;;;6.20;3.20;;;;;;;-0.24;78.66;97491.38;107116;1261;59273;-78
2023/12/24 02:14:38;;;;;;;5.90;2.70;;;;;;;-0.14;78.35;97494.56;106447;1254;73885;-78
2023/12/24 02:17:05;;;;;;;5.50;3.30;;;;;;;-0.06;78.52;97488.91;106453;1258;68920;-80
2023/12/24 02:19:33;;;;;;;6.40;3.20;;;;;;;-0.10;78.54;97495.21;106196;1253;72908;-80
2023/12/24 02:22:01;;;;;;;7.30;3.60;;;;;;;-0.15;78.25;97496.64;106392;1259;60346;-79
2023/12/24 02:24:28;;;;;;;5.60;3.70;;;;;;;-0.21;78.29;97500.02;106243;1260;60390;-79
2023/12/24 02:27:02;;;;;;;6.30;2.90;;;;;;;-0.24;78.00;97503.90;105852;1254;72643;-80
2023/12/24 02:29:37;;;;;;;6.30;3.30;;;;;;;-0.15;77.70;97504.96;106060;1259;69229;-78
2023/12/24 02:32:14;;;;;;;4.90;2.70;;;;;;;-0.17;77.79;97502.44;106532;1257;70796;-78
2023/12/24 02:34:45;;;;;;;6.00;3.70;;;;;;;-0.25;77.99;97508.73;108511;1253;59237;-78
2023/12/24 02:37:13;;;;;;;7.40;3.60;;;;;;;-0.30;78.10;97505.63;108641;1254;60298;-77
2023/12/24 02:39:41;;;;;;;5.20;2.70;;;;;;;-0.28;78.46;97507.11;105963;1259;73882;-77
2023/12/24 02:42:09;;;;;;;5.80;3.10;;;;;;;-0.16;78.42;97512.06;105656;1261;69015;-78
2023/12/24 02:44:38;;;;;;;6.80;3.00;;;;;;;-0.17;78.50;97515.65;105712;1257;72726;-78
2023/12/24 02:47:05;;;;;;;6.30;3.40;;;;;;;-0.23;78.42;97518.63;105609;1254;60456;-77
2023/12/24 02:49:34;;;;;;;6.20;3.50;;;;;;;-0.29;78.65;97520.58;105551;1259;60458;-76
2023/12/24 02:52:01;;;;;;;5.60;3.00;;;;;;;-0.33;78.76;97518.40;105786;1257;75888;-76
2023/12/24 02:54:29;;;;;;;7.60;3.10;;;;;;;-0.26;78.51;97520.80;105600;1256;70255;-77
2023/12/24 02:56:57;;;;;;;6.90;3.70;;;;;;;-0.20;78.87;97523.66;105622;1256;70612;-80
2023/12/24 02:59:26;;;;;;;5.10;3.10;;;;;;;-0.24;78.64;97529.45;105760;1257;60562;-79
2023/12/24 03:01:53;;;;;;;6.20;3.30;;;;;;;-0.29;78.59;97533.81;105749;1259;60331;-79
2023/12/24 03:04:21;;;;;;;7.30;3.00;;;;;;;-0.33;78.56;97535.85;105901;1259;73969;-79
2023/12/24 03:06:49;;;;;;;6.60;3.30;;;;;;;-0.26;78.58;97532.52;105940;1258;68871;-80
2023/12/24 03:09:16;;;;;;;9.10;3.60;;;;;;;-0.25;78.36;97534.77;105832;1254;70672;-76
2023/12/24 03:11:44;;;;;;;7.20;3.50;;;;;;;-0.30;78.48;97543.73;105643;1253;60376;-78
2023/12/24 03:14:12;;;;;;;6.30;3.80;;;;;;;-0.36;78.65;97548.98;105877;1259;60427;-77
2023/12/24 03:16:39;;;;;;;6.60;3.60;;;;;;;-0.35;78.79;97554.84;105672;1259;73931;-78
2023/12/24 03:19:07;;;;;;;7.30;3.20;;;;;;;-0.27;78.42;97561.59;105867;1258;69102;-80
2023/12/24 03:21:35;;;;;;;4.80;2.80;;;;;;;-0.25;78.52;97561.83;105793;1253;71412;-78
2023/12/24 03:24:02;;;;;;;5.20;3.20;;;;;;;-0.29;78.55;97563.24;105780;1253;60328;-79
2023/12/24 03:26:30;;;;;;;7.90;3.10;;;;;;;-0.33;78.74;97559.16;107673;1253;59600;-77
2023/12/24 03:29:00;;;;;;;8.00;3.30;;;;;;;-0.37;78.61;97563.31;109225;1253;72746;-79
2023/12/24 03:31:28;;;;;;;7.40;3.20;;;;;;;-0.28;78.48;97565.79;107818;1253;68117;-79
2023/12/24 03:33:56;;;;;;;6.60;3.40;;;;;;;-0.23;78.46;97567.84;106414;1254;72644;-75
2023/12/24 03:36:24;;;;;;;6.20;3.20;;;;;;;-0.27;78.64;97572.73;106968;1259;60351;-76
2023/12/24 03:38:52;;;;;;;5.30;3.20;;;;;;;-0.33;78.37;97576.02;106861;1254;60435;-77
2023/12/24 03:41:19;;;;;;;5.10;2.40;;;;;;;-0.39;78.57;97577.81;106489;1254;72508;-80
2023/12/24 03:43:47;;;;;;;5.40;3.00;;;;;;;-0.36;78.55;97580.80;105843;1254;69017;-76
2023/12/24 03:46:21;;;;;;;5.70;2.70;;;;;;;-0.28;78.39;97580.86;105754;1254;71231;-77
2023/12/24 03:48:48;;;;;;;5.00;2.90;;;;;;;-0.31;78.31;97586.19;105830;1254;60567;-79
2023/12/24 03:51:18;;;;;;;6.20;3.40;;;;;;;-0.37;78.51;97587.38;105806;1253;60434;-79
2023/12/24 03:53:46;;;;;;;6.00;3.20;;;;;;;-0.44;78.43;97582.44;105640;1259;72792;-78
2023/12/24 03:56:13;;;;;;;7.40;3.20;;;;;;;-0.46;78.56;97589.92;107099;1253;70167;-77
2023/12/24 03:58:41;;;;;;;8.50;3.70;;;;;;;-0.37;78.21;97591.00;107655;1254;71078;-76
2023/12/24 04:01:08;;;;;;;6.30;2.90;;;;;;;-0.37;77.91;97593.42;107066;1253;60354;-80
2023/12/24 04:03:36;;;;;;;8.30;3.60;;;;;;;-0.43;77.86;97591.96;106732;1254;60458;-78
2023/12/24 04:06:13;;;;;;;7.10;3.30;;;;;;;-0.48;77.67;97597.85;107376;1253;71577;-76
2023/12/24 04:08:42;;;;;;;9.50;3.10;;;;;;;-0.51;77.46;97601.64;106193;1258;70629;-78
2023/12/24 04:11:12;;;;;;;5.30;2.60;;;;;;;-0.41;77.67;97601.66;105663;1262;70764;-77
2023/12/24 04:13:40;;;;;;;4.80;3.00;;;;;;;-0.37;77.69;97594.84;105690;1255;60436;-79
2023/12/24 04:16:07;;;;;;;5.70;3.40;;;;;;;-0.43;77.97;97596.85;105858;1253;60501;-77
2023/12/24 04:18:35;;;;;;;6.50;3.20;;;;;;;-0.49;77.96;97601.23;106284;1262;73937;-74
2023/12/24 04:21:04;;;;;;;4.00;2.70;;;;;;;-0.53;78.00;97609.23;107915;1253;68977;-75
2023/12/24 04:23:32;;;;;;;4.80;2.80;;;;;;;-0.49;77.76;97616.52;107539;1253;72760;-77
2023/12/24 04:25:59;;;;;;;4.40;2.70;;;;;;;-0.38;77.53;97621.35;105954;1259;60319;-77
2023/12/24 04:28:27;;;;;;;6.70;3.20;;;;;;;-0.38;77.17;97621.33;105531;1261;188221;-77
2023/12/24 04:32:16;;;;;;;5.20;3.30;;;;;;;-0.42;77.14;97625.37;102762;1295;600277;-75
2023/12/24 04:34:45;;;;;;;8.50;3.40;;;;;;;-0.47;77.01;97621.25;104889;1265;59504;-77
2023/12/24 04:37:13;;;;;;;6.60;2.70;;;;;;;-0.50;77.03;97627.38;106302;1272;59229;-79
2023/12/24 04:39:41;;;;;;;8.00;3.00;;;;;;;-0.42;76.78;97626.38;105407;1264;70975;-78
2023/12/24 04:42:08;;;;;;;12.30;7.10;;;;;;;-0.39;76.77;97625.59;105607;1266;70425;-77
2023/12/24 04:44:39;;;;;;;6.50;3.60;;;;;;;-0.43;77.02;97624.44;105767;1271;73917;-76
2023/12/24 04:47:07;;;;;;;5.90;3.30;;;;;;;-0.48;76.81;97628.96;105787;1260;153248;-77
2023/12/24 04:49:35;;;;;;;6.80;3.20;;;;;;;-0.52;77.15;97632.67;105545;1263;60100;-78
2023/12/24 04:52:03;;;;;;;5.50;3.60;;;;;;;-0.44;77.16;97632.75;105616;1262;72787;-77
2023/12/24 04:54:31;;;;;;;9.40;3.50;;;;;;;-0.36;77.03;97633.38;105422;1257;70104;-77
2023/12/24 04:56:58;;;;;;;7.10;3.20;;;;;;;-0.41;76.76;97633.46;105582;1263;71467;-79
2023/12/24 04:59:27;;;;;;;9.30;3.90;;;;;;;-0.46;77.00;97629.96;105854;1260;59667;-82
2023/12/24 05:01:54;;;;;;;10.00;3.70;;;;;;;-0.50;77.06;97634.01;106183;1254;59940;-82
2023/12/24 05:04:22;;;;;;;8.30;3.50;;;;;;;-0.53;77.44;97640.60;106983;1254;71950;-83
2023/12/24 05:06:49;;;;;;;5.40;2.70;;;;;;;-0.56;77.58;97639.48;108655;1254;70727;-78
2023/12/24 05:09:17;;;;;;;4.70;2.80;;;;;;;-0.44;77.21;97643.84;107647;1258;71370;-79
2023/12/24 05:11:45;;;;;;;7.30;3.00;;;;;;;-0.37;77.04;97646.83;107466;1254;59555;-80
2023/12/24 05:14:13;;;;;;;6.30;2.90;;;;;;;-0.42;77.12;97647.11;108530;1254;60054;-81
2023/12/24 05:16:41;;;;;;;5.00;3.00;;;;;;;-0.46;77.28;97650.70;107609;1254;71911;-78
2023/12/24 05:19:09;;;;;;;5.90;3.20;;;;;;;-0.51;77.08;97648.76;107647;1256;70233;-79
2023/12/24 05:21:37;;;;;;;6.60;2.60;;;;;;;-0.50;77.20;97651.08;107320;1256;71484;-79
2023/12/24 05:24:06;;;;;;;5.40;2.90;;;;;;;-0.39;77.18;97653.50;106561;1254;59610;-84
2023/12/24 05:26:34;;;;;;;5.30;3.20;;;;;;;-0.37;76.93;97657.10;106680;1254;60121;-81
2023/12/24 05:29:02;;;;;;;6.60;3.00;;;;;;;-0.43;77.09;97659.74;106235;1254;73210;-84
2023/12/24 05:31:31;;;;;;;4.80;2.80;;;;;;;-0.49;77.27;97663.61;105945;1257;70187;-82
2023/12/24 05:33:58;;;;;;;5.30;3.20;;;;;;;-0.54;77.36;97666.23;106008;1259;71448;-84
2023/12/24 05:36:26;;;;;;;4.80;2.70;;;;;;;-0.51;77.41;97670.29;105841;1257;59634;-82
2023/12/24 05:38:53;;;;;;;6.20;2.70;;;;;;;-0.41;77.41;97664.29;107255;1257;60890;-80
2023/12/24 05:41:21;;;;;;;6.20;3.50;;;;;;;-0.43;77.18;97674.02;107126;1257;72310;-82
2023/12/24 05:43:51;;;;;;;6.00;2.90;;;;;;;-0.48;77.16;97674.80;105971;1261;70080;-79
2023/12/24 05:46:20;;;;;;;6.20;3.40;;;;;;;-0.52;77.43;97675.55;105825;1257;71579;-82
2023/12/24 05:48:48;;;;;;;6.60;2.80;;;;;;;-0.55;77.49;97680.39;106867;1259;60064;-83
2023/12/24 05:51:15;;;;;;;4.90;3.00;;;;;;;-0.46;76.95;97682.16;107265;1258;61054;-81
2023/12/24 05:53:43;;;;;;;5.80;3.30;;;;;;;-0.39;77.04;97689.27;107985;1257;74667;-80
2023/12/24 05:56:11;;;;;;;4.60;2.80;;;;;;;-0.44;77.07;97694.45;107589;1257;69058;-82
2023/12/24 05:58:39;;;;;;;8.50;3.70;;;;;;;-0.49;77.32;97699.85;106988;1257;71440;-83
2023/12/24 06:01:06;;;;;;;8.10;3.50;;;;;;;-0.52;77.30;97700.60;107000;1257;59345;-82
2023/12/24 06:03:34;;;;;;;7.20;3.30;;;;;;;-0.52;77.20;97705.66;107608;1261;59485;-82
2023/12/24 06:06:02;;;;;;;8.90;3.30;;;;;;;-0.41;77.08;97708.77;108964;1258;71986;-83
2023/12/24 06:08:30;;;;;;;7.20;3.00;;;;;;;-0.40;77.13;97710.04;108899;1256;69117;-83
2023/12/24 06:10:58;;;;;;;6.70;3.20;;;;;;;-0.42;77.08;97709.92;108816;1256;71511;-84
2023/12/24 06:13:25;;;;;;;7.00;3.50;;;;;;;-0.46;77.23;97712.40;108713;1257;59653;-85
2023/12/24 06:15:53;;;;;;;6.90;3.40;;;;;;;-0.49;77.33;97720.35;106923;1257;59353;-83
2023/12/24 06:18:20;;;;;;;6.40;3.60;;;;;;;-0.44;77.26;97723.38;106180;1257;74087;-82
2023/12/24 06:20:48;;;;;;;8.40;3.70;;;;;;;-0.34;77.31;97728.80;106817;1260;69006;-83
2023/12/24 06:23:16;;;;;;;8.20;3.90;;;;;;;-0.35;77.29;97730.70;106834;1257;72528;-83
2023/12/24 06:25:46;;;;;;;8.40;3.50;;;;;;;-0.40;77.36;97731.16;106705;1261;59644;-85
2023/12/24 06:28:15;;;;;;;8.20;3.80;;;;;;;-0.45;77.61;97730.86;106160;1261;60196;-84
2023/12/24 06:30:42;;;;;;;7.80;3.60;;;;;;;-0.47;77.95;97730.81;106503;1258;73412;-84
2023/12/24 06:33:10;;;;;;;7.50;3.60;;;;;;;-0.43;77.72;97735.74;106138;1257;70144;-85
2023/12/24 06:35:39;;;;;;;7.30;3.60;;;;;;;-0.35;77.43;97734.98;106659;1259;70504;-83
2023/12/24 06:38:07;;;;;;;8.50;4.50;;;;;;;-0.35;77.52;97739.54;108472;1258;59411;-88
2023/12/24 06:40:37;;;;;;;7.80;4.10;;;;;;;-0.40;77.85;97746.25;108957;1257;58863;-85
2023/12/24 06:43:07;;;;;;;6.40;3.40;;;;;;;-0.42;78.13;97741.06;107775;1257;73949;-83
2023/12/24 06:45:35;;;;;;;6.50;3.50;;;;;;;-0.32;78.49;97747.02;106837;1257;70579;-82
2023/12/24 06:48:03;;;;;;;7.60;4.60;;;;;;;-0.29;78.73;97750.04;106209;1257;71681;-80
2023/12/24 06:50:31;;;;;;;8.70;4.50;;;;;;;-0.33;79.14;97750.34;106187;1261;59754;-82
2023/12/24 06:52:59;;;;;;;7.10;4.20;;;;;;;-0.41;79.69;97761.00;106361;1257;60269;-82
2023/12/24 06:55:26;;;;;;;7.00;3.80;;;;;;;-0.45;80.14;97757.54;109030;1257;71784;-80
2023/12/24 06:57:54;;;;;;;9.10;3.80;;;;;;;-0.38;80.47;97758.98;109127;1257;68975;-81
2023/12/24 07:00:22;;;;;;;9.40;4.20;;;;;;;-0.37;80.73;97762.17;107793;1261;71655;-81
2023/12/24 07:02:50;;;;;;;7.40;4.00;;;;;;;-0.43;81.44;97764.08;106605;1257;61247;-81
2023/12/24 07:05:18;;;;;;;11.00;4.20;;;;;;;-0.48;82.00;97768.37;106333;1258;60007;-79
2023/12/24 07:07:45;;;;;;;7.30;4.10;;;;;;;-0.49;82.14;97770.58;105746;1258;72386;-81
2023/12/24 07:10:13;;;;;;;6.50;4.20;;;;;;;-0.41;82.37;97775.22;105896;1259;69988;-80
2023/12/24 07:12:40;;;;;;;7.70;4.20;;;;;;;-0.41;82.47;97778.54;107091;1258;73701;-80
2023/12/24 07:15:09;;;;;;;13.40;4.40;;;;;;;-0.49;83.08;97777.52;106000;1257;59743;-78
2023/12/24 07:17:36;;;;;;;9.20;4.10;;;;;;;-0.54;83.75;97780.30;106159;1257;59598;-79
2023/12/24 07:20:05;;;;;;;6.20;3.40;;;;;;;-0.55;84.14;97785.96;107272;1258;71650;-82
2023/12/24 07:22:32;;;;;;;6.40;3.40;;;;;;;-0.47;84.23;97788.34;108320;1259;69149;-81
2023/12/24 07:25:00;;;;;;;6.80;4.00;;;;;;;-0.48;84.76;97791.39;108460;1258;71576;-80
2023/12/24 07:27:28;;;;;;;7.70;4.30;;;;;;;-0.56;85.26;97792.47;107697;1257;59654;-81
2023/12/24 07:29:56;;;;;;;7.40;4.30;;;;;;;-0.61;85.58;97790.13;107389;1255;59578;-80
2023/12/24 07:32:23;;;;;;;6.60;4.20;;;;;;;-0.50;85.69;97788.09;108137;1254;73131;-80
2023/12/24 07:34:51;;;;;;;9.40;4.20;;;;;;;-0.45;85.89;97791.42;108089;1254;69433;-82
2023/12/24 07:37:19;;;;;;;6.50;4.00;;;;;;;-0.49;86.09;97793.89;108710;1254;73918;-80
2023/12/24 07:39:46;;;;;;;8.00;3.90;;;;;;;-0.53;86.61;97795.86;108156;1254;59348;-80
2023/12/24 07:42:13;;;;;;;7.20;3.70;;;;;;;-0.50;86.91;97798.14;106814;1254;59601;-79
2023/12/24 07:44:42;;;;;;;9.80;5.20;;;;;;;-0.39;86.59;97798.66;107478;1254;72915;-79
2023/12/24 07:47:09;;;;;;;7.00;3.70;;;;;;;-0.38;86.71;97802.94;106903;1254;69495;-80
2023/12/24 07:49:37;;;;;;;9.50;4.50;;;;;;;-0.44;87.01;97806.82;106732;1254;72707;-81
2023/12/24 07:52:05;;;;;;;8.00;4.60;;;;;;;-0.49;87.30;97812.15;109119;1254;59599;-83
2023/12/24 07:54:32;;;;;;;6.80;4.40;;;;;;;-0.40;87.32;97816.73;109198;1254;58835;-80
2023/12/24 07:57:03;;;;;;;7.20;4.30;;;;;;;-0.33;87.18;97820.38;107213;1255;71784;-80
2023/12/24 07:59:31;;;;;;;9.80;4.60;;;;;;;-0.37;87.12;97826.16;107149;1255;71099;-80
2023/12/24 08:01:58;;;;;;;9.80;3.80;;;;;;;-0.41;87.18;97829.30;107220;1254;71400;-79
2023/12/24 08:04:27;;;;;;;9.70;4.50;;;;;;;-0.41;87.15;97833.30;107844;1254;60889;-81
2023/12/24 08:06:55;;;;;;;7.20;4.00;;;;;;;-0.28;86.86;97826.69;107006;1254;59681;-82
2023/12/24 08:09:24;;;;;;;11.10;4.30;;;;;;;-0.21;86.64;97831.41;107946;1254;71683;-78
2023/12/24 08:11:52;;;;;;;7.60;4.90;;;;;;;-0.25;86.55;97833.52;106668;1254;69017;-79
2023/12/24 08:14:20;;;;;;;9.20;4.00;;;;;;;-0.29;86.61;97839.17;107217;1258;72786;-79
2023/12/24 08:16:48;;;;;;;9.20;3.90;;;;;;;-0.27;86.66;97844.34;106825;1254;63019;-81
2023/12/24 08:19:16;;;;;;;9.80;4.30;;;;;;;-0.21;86.11;97847.23;106573;1260;60056;-80
2023/12/24 08:21:44;;;;;;;7.00;3.80;;;;;;;-0.26;86.48;97852.92;106711;1254;73154;-81
2023/12/24 08:24:11;;;;;;;5.30;3.00;;;;;;;-0.32;86.86;97855.76;106699;1258;70322;-82
2023/12/24 08:26:39;;;;;;;6.60;3.50;;;;;;;-0.34;86.45;97855.13;107120;1256;71581;-82
2023/12/24 08:29:07;;;;;;;6.70;3.60;;;;;;;-0.31;86.47;97853.59;106625;1258;59592;-81
2023/12/24 08:31:35;;;;;;;10.20;4.90;;;;;;;-0.36;86.65;97849.77;106565;1254;60045;-83
2023/12/24 08:34:02;;;;;;;7.90;4.30;;;;;;;-0.45;87.01;97853.64;106229;1254;73370;-80
2023/12/24 08:36:30;;;;;;;5.40;3.60;;;;;;;-0.43;87.49;97859.42;106319;1254;70331;-81
2023/12/24 08:38:57;;;;;;;7.90;3.50;;;;;;;-0.31;87.35;97861.13;106432;1257;71429;-81
2023/12/24 08:41:25;;;;;;;6.20;4.00;;;;;;;-0.30;87.53;97859.61;106539;1255;60522;-81
2023/12/24 08:43:52;;;;;;;6.90;3.60;;;;;;;-0.36;87.68;97860.89;107448;1254;60481;-79
2023/12/24 08:46:20;;;;;;;5.90;3.60;;;;;;;-0.35;87.60;97862.17;108587;1254;72622;-79
2023/12/24 08:48:48;;;;;;;6.30;3.30;;;;;;;-0.25;87.30;97862.77;107928;1260;68905;-79
2023/12/24 08:51:16;;;;;;;6.20;3.90;;;;;;;-0.27;87.45;97869.38;107117;1254;71480;-79
2023/12/24 08:53:43;;;;;;;5.80;3.50;;;;;;;-0.35;87.58;97862.83;106915;1254;60812;-78
2023/12/24 08:56:11;;;;;;;8.20;3.90;;;;;;;-0.39;87.89;97871.77;106328;1254;60544;-80
2023/12/24 08:58:42;;;;;;;8.10;3.80;;;;;;;-0.33;87.58;97868.06;106511;1258;73780;-81
2023/12/24 09:01:09;;;;;;;6.50;3.90;;;;;;;-0.29;87.55;97866.27;106282;1254;68732;-81
2023/12/24 09:03:37;;;;;;;7.30;3.80;;;;;;;-0.33;87.77;97864.23;106606;1254;71509;-81
2023/12/24 09:06:04;;;;;;;8.30;4.00;;;;;;;-0.37;87.95;97863.21;108003;1254;60436;-80
2023/12/24 09:08:32;;;;;;;4.80;3.50;;;;;;;-0.28;88.04;97868.77;109188;1254;58778;-79
2023/12/24 09:10:59;;;;;;;6.50;3.70;;;;;;;-0.15;87.67;97868.23;109153;1254;72605;-81
2023/12/24 09:13:27;;;;;;;9.50;4.20;;;;;;;-0.11;87.56;97871.02;109244;1254;70850;-80
2023/12/24 09:15:54;;;;;;;7.90;4.20;;;;;;;-0.07;87.27;97871.65;109250;1254;71390;-80
2023/12/24 09:18:22;;;;;;;6.60;3.30;;;;;;;0.02;86.82;97873.25;109221;1258;59282;-81
2023/12/24 09:20:51;;;;;;;7.40;3.90;;;;;;;0.17;85.92;97882.08;109306;1254;58876;-80
2023/12/24 09:23:20;;;;;;;4.90;3.20;;;;;;;0.17;85.31;97878.60;109353;1254;72460;-79
2023/12/24 09:25:48;;;;;;;6.00;3.80;;;;;;;0.10;85.72;97885.71;109342;1254;68732;-82
2023/12/24 09:28:15;;;;;;;6.30;3.80;;;;;;;0.06;85.17;97888.73;109127;1254;71183;-80
2023/12/24 09:30:43;;;;;;;8.70;4.40;;;;;;;0.10;84.53;97888.10;109314;1254;59575;-83
2023/12/24 09:33:11;;;;;;;6.50;3.50;;;;;;;0.13;84.48;97893.97;109297;1254;60938;-83
2023/12/24 09:35:40;;;;;;;8.80;3.70;;;;;;;0.08;84.22;97891.17;109321;1254;72850;-84
2023/12/24 09:38:08;;;;;;;7.60;3.60;;;;;;;-0.02;84.18;97888.80;109358;1254;68095;-82
2023/12/24 09:40:36;;;;;;;7.50;3.50;;;;;;;-0.10;84.34;97888.65;109406;1254;71126;-81
2023/12/24 09:43:04;;;;;;;7.40;3.90;;;;;;;-0.03;84.47;97883.97;109324;1254;59895;-82
2023/12/24 09:45:32;;;;;;;8.00;3.30;;;;;;;0.06;83.17;97888.31;109244;1254;59127;-81
2023/12/24 09:48:00;;;;;;;6.50;4.00;;;;;;;0.05;83.16;97889.54;109378;1255;72350;-81
2023/12/24 09:50:27;;;;;;;8.80;4.50;;;;;;;0.02;83.00;97890.15;109471;1254;68958;-80
2023/12/24 09:52:55;;;;;;;5.90;3.10;;;;;;;0.02;82.94;97886.66;109426;1254;71520;-81
2023/12/24 09:55:23;;;;;;;5.10;3.30;;;;;;;0.12;82.55;97887.06;109344;1260;58000;-80
2023/12/24 09:57:50;;;;;;;7.10;3.90;;;;;;;0.13;82.34;97889.10;109296;1254;58778;-80
2023/12/24 10:00:18;;;;;;;7.80;3.90;;;;;;;0.06;81.56;97887.83;109431;1254;72660;-81
2023/12/24 10:02:46;;;;;;;7.00;4.00;;;;;;;-0.03;81.39;97886.20;109260;1254;68913;-82
2023/12/24 10:05:14;;;;;;;7.40;2.90;;;;;;;0.02;81.26;97884.38;109290;1254;70952;-83
2023/12/24 10:07:45;;;;;;;7.80;3.80;;;;;;;0.11;80.75;97890.85;109367;1254;58173;-82
2023/12/24 10:11:22;;;;;;;8.30;3.80;;;;;;;0.08;80.79;97893.91;106853;1285;599910;-83
2023/12/24 10:14:00;;;;;;;7.60;4.20;;;;;;;0.04;80.92;97897.85;108694;1268;57993;-84
2023/12/24 10:16:27;;;;;;;7.00;3.80;;;;;;;0.03;80.15;97902.82;109067;1260;58749;-83
2023/12/24 10:18:55;;;;;;;7.70;4.00;;;;;;;0.10;79.80;97902.38;109034;1260;71228;-80
2023/12/24 10:21:23;;;;;;;5.70;3.70;;;;;;;0.16;79.40;97907.90;109052;1260;69081;-80
2023/12/24 10:23:51;;;;;;;8.70;3.90;;;;;;;0.15;79.31;97907.17;108829;1260;157644;-78
2023/12/24 10:26:20;;;;;;;4.40;3.30;;;;;;;0.13;79.24;97912.05;109019;1257;58717;-82
2023/12/24 10:28:49;;;;;;;6.20;3.10;;;;;;;0.11;79.31;97910.36;109028;1257;58991;-83
2023/12/24 10:31:27;;;;;;;5.00;3.50;;;;;;;0.24;78.75;97913.14;108991;1258;71209;-81
2023/12/24 10:34:01;;;;;;;7.50;4.10;;;;;;;0.28;78.09;97913.27;109086;1257;68985;-84
2023/12/24 10:36:29;;;;;;;6.30;3.70;;;;;;;0.24;78.05;97919.39;108952;1259;71494;-82
2023/12/24 10:38:57;;;;;;;6.20;3.50;;;;;;;0.18;76.56;97923.77;108815;1257;58051;-82
2023/12/24 10:41:26;;;;;;;7.10;4.10;;;;;;;0.13;76.88;97916.73;108994;1259;58726;-83
2023/12/24 10:43:54;;;;;;;5.70;2.70;;;;;;;0.15;77.05;97922.81;108983;1259;72007;-84
2023/12/24 10:46:25;;;;;;;4.90;3.00;;;;;;;0.25;76.87;97922.97;108935;1259;69324;-85
2023/12/24 10:48:53;;;;;;;7.20;3.20;;;;;;;0.22;76.39;97922.23;108915;1258;70720;-86
2023/12/24 10:51:21;;;;;;;5.40;3.20;;;;;;;0.17;76.68;97925.39;108880;1259;58268;-87
2023/12/24 10:53:57;;;;;;;6.20;3.70;;;;;;;0.13;76.68;97928.89;109141;1259;58766;-86
2023/12/24 10:56:31;;;;;;;7.30;3.40;;;;;;;0.15;76.74;97929.41;109007;1259;71874;-84
2023/12/24 10:59:03;;;;;;;4.40;3.60;;;;;;;0.25;76.43;97934.24;108919;1265;70176;-83
2023/12/24 11:01:33;;;;;;;5.00;3.40;;;;;;;0.24;76.54;97945.65;108715;1260;71424;-85
2023/12/24 11:04:01;;;;;;;7.60;4.50;;;;;;;0.20;76.77;97941.73;108817;1260;58056;-86
2023/12/24 11:06:36;;;;;;;6.50;3.40;;;;;;;0.17;76.97;97943.14;108821;1259;58735;-84
2023/12/24 11:09:29;;;;;;;8.60;3.60;;;;;;;0.17;77.31;97948.52;108958;1258;71786;-85
2023/12/24 11:11:57;;;;;;;4.60;3.10;;;;;;;0.22;77.17;97953.33;108959;1259;68910;-81
2023/12/24 11:14:40;;;;;;;5.30;2.60;;;;;;;0.32;76.05;97958.48;109086;1259;71582;-84
2023/12/24 11:17:08;;;;;;;7.00;3.30;;;;;;;0.32;75.77;97958.98;109023;1259;58146;-83
2023/12/24 11:19:40;;;;;;;6.60;3.30;;;;;;;0.23;75.90;97963.54;108916;1259;58833;-84
2023/12/24 11:22:11;;;;;;;5.20;3.20;;;;;;;0.17;76.26;97969.64;109145;1259;72302;-84
2023/12/24 11:24:42;;;;;;;5.70;3.00;;;;;;;0.10;76.70;97968.70;108973;1258;69054;-83
2023/12/24 11:27:12;;;;;;;5.30;3.30;;;;;;;0.16;76.87;97976.88;109036;1259;71341;-83
2023/12/24 11:29:52;;;;;;;6.10;3.70;;;;;;;0.25;76.83;97980.08;109067;1258;60442;-83
2023/12/24 11:32:26;;;;;;;6.50;3.70;;;;;;;0.20;76.81;97982.77;108991;1258;58776;-83
2023/12/24 11:34:57;;;;;;;6.50;3.60;;;;;;;0.12;76.84;97989.13;108943;1259;70494;-84